createdAt,value
2023-03-17T00:01:06.064Z,8.53
2023-03-17T00:03:13.907Z,8.51
2023-03-17T00:05:22.719Z,8.48
2023-03-17T00:07:27.918Z,8.47
2023-03-17T00:09:32.952Z,8.45
2023-03-17T00:11:37.798Z,8.45
2023-03-17T00:13:42.615Z,8.45
2023-03-17T00:15:48.209Z,8.45
2023-03-17T00:17:58.359Z,8.45
2023-03-17T00:20:03.797Z,8.44
2023-03-17T00:22:17.907Z,8.41
2023-03-17T00:24:22.606Z,8.39
2023-03-17T00:26:27.881Z,8.36
2023-03-17T00:28:32.574Z,8.36
2023-03-17T00:30:37.651Z,8.36
2023-03-17T00:32:42.895Z,8.36
2023-03-17T00:34:50.300Z,8.32
2023-03-17T00:36:56.194Z,8.31
2023-03-17T00:39:02.369Z,8.30
2023-03-17T00:41:07.616Z,8.27
2023-03-17T00:43:12.789Z,8.27
2023-03-17T00:45:18.867Z,8.27
2023-03-17T00:47:23.830Z,8.26
2023-03-17T00:49:29.313Z,8.24
2023-03-17T00:51:36.817Z,8.21
2023-03-17T00:53:42.043Z,8.19
2023-03-17T00:55:48.664Z,8.17
2023-03-17T00:57:55.162Z,8.14
2023-03-17T00:59:59.970Z,8.11
2023-03-17T01:02:05.280Z,8.10
2023-03-17T01:04:12.438Z,8.08
2023-03-17T01:06:18.812Z,8.06
2023-03-17T01:08:26.981Z,8.03
2023-03-17T01:10:32.797Z,8.00
2023-03-17T01:12:38.277Z,7.96
2023-03-17T01:14:43.824Z,7.92
2023-03-17T01:16:50.584Z,7.91
2023-03-17T01:18:55.787Z,7.90
2023-03-17T01:21:00.864Z,7.88
2023-03-17T01:23:05.916Z,7.88
2023-03-17T01:25:14.989Z,7.87
2023-03-17T01:27:21.003Z,7.89
2023-03-17T01:29:25.879Z,7.88
2023-03-17T01:31:30.808Z,7.88
2023-03-17T01:33:36.614Z,7.86
2023-03-17T01:35:42.381Z,7.83
2023-03-17T01:37:47.928Z,7.81
2023-03-17T01:39:52.738Z,7.79
2023-03-17T01:42:02.082Z,7.75
2023-03-17T01:44:07.617Z,7.75
2023-03-17T01:46:28.181Z,7.73
2023-03-17T01:48:37.390Z,7.70
2023-03-17T01:50:42.734Z,7.68
2023-03-17T01:52:48.145Z,7.67
2023-03-17T01:54:57.270Z,7.65
2023-03-17T01:57:10.579Z,7.60
2023-03-17T01:59:21.399Z,7.54
2023-03-17T02:01:32.225Z,7.50
2023-03-17T02:03:37.214Z,7.47
2023-03-17T02:05:43.209Z,7.44
2023-03-17T02:07:48.522Z,7.40
2023-03-17T02:09:54.083Z,7.37
2023-03-17T02:12:01.586Z,7.33
2023-03-17T02:14:09.286Z,7.30
2023-03-17T02:16:17.700Z,7.29
2023-03-17T02:18:26.003Z,7.27
2023-03-17T02:21:13.009Z,7.21
2023-03-17T02:23:25.092Z,7.16
2023-03-17T02:25:33.435Z,7.14
2023-03-17T02:27:44.684Z,7.13
2023-03-17T02:29:50.966Z,7.10
2023-03-17T02:31:56.298Z,7.08
2023-03-17T02:34:00.960Z,7.04
2023-03-17T02:36:06.087Z,7.03
2023-03-17T02:38:11.220Z,7.00
2023-03-17T02:40:18.817Z,6.99
2023-03-17T02:42:23.792Z,6.97
2023-03-17T02:44:28.822Z,6.98
2023-03-17T02:46:33.898Z,6.97
2023-03-17T02:48:39.633Z,6.98
2023-03-17T02:50:44.424Z,6.98
2023-03-17T02:52:49.222Z,6.97
2023-03-17T02:54:54.196Z,6.96
2023-03-17T02:57:01.933Z,6.93
2023-03-17T02:59:07.615Z,6.94
2023-03-17T03:01:13.229Z,6.92
2023-03-17T03:03:18.162Z,6.90
2023-03-17T03:05:23.263Z,6.90
2023-03-17T03:07:27.990Z,6.90
2023-03-17T03:09:33.074Z,6.88
2023-03-17T03:11:37.953Z,6.87
2023-03-17T03:13:45.485Z,6.86
2023-03-17T03:15:50.754Z,6.89
2023-03-17T03:17:55.492Z,6.91
2023-03-17T03:20:00.244Z,6.92
2023-03-17T03:22:05.140Z,6.91
2023-03-17T03:24:11.044Z,6.91
2023-03-17T03:26:15.870Z,6.88
2023-03-17T03:28:20.705Z,6.86
2023-03-17T03:30:28.810Z,6.82
2023-03-17T03:32:34.062Z,6.81
2023-03-17T03:34:39.132Z,6.80
2023-03-17T03:36:44.142Z,6.78
2023-03-17T03:38:49.430Z,6.77
2023-03-17T03:40:54.205Z,6.76
2023-03-17T03:42:58.928Z,6.75
2023-03-17T03:45:03.774Z,6.72
2023-03-17T03:47:12.332Z,6.72
2023-03-17T03:49:17.166Z,6.72
2023-03-17T03:51:22.371Z,6.71
2023-03-17T03:53:27.285Z,6.75
2023-03-17T03:55:32.580Z,6.75
2023-03-17T03:57:37.702Z,6.75
2023-03-17T03:59:42.588Z,6.73
2023-03-17T04:01:47.442Z,6.73
2023-03-17T04:03:55.371Z,6.72
2023-03-17T04:06:00.155Z,6.71
2023-03-17T04:08:05.228Z,6.70
2023-03-17T04:10:11.999Z,6.69
2023-03-17T04:12:17.060Z,6.67
2023-03-17T04:14:21.852Z,6.66
2023-03-17T04:16:27.197Z,6.66
2023-03-17T04:18:32.008Z,6.64
2023-03-17T04:20:39.389Z,6.60
2023-03-17T04:22:44.535Z,6.58
2023-03-17T04:24:49.630Z,6.55
2023-03-17T04:26:54.654Z,6.54
2023-03-17T04:28:59.505Z,6.55
2023-03-17T04:31:04.636Z,6.53
2023-03-17T04:33:09.625Z,6.52
2023-03-17T04:35:17.472Z,6.52
2023-03-17T04:37:25.344Z,6.51
2023-03-17T04:39:31.001Z,6.50
2023-03-17T04:41:35.964Z,6.49
2023-03-17T04:43:41.421Z,6.46
2023-03-17T04:45:46.245Z,6.45
2023-03-17T04:47:51.115Z,6.44
2023-03-17T04:49:55.863Z,6.42
2023-03-17T04:52:00.880Z,6.40
2023-03-17T04:54:08.614Z,6.40
2023-03-17T04:56:14.173Z,6.42
2023-03-17T04:58:29.830Z,6.43
2023-03-17T05:00:38.914Z,6.44
2023-03-17T05:02:44.291Z,6.47
2023-03-17T05:04:49.476Z,6.47
2023-03-17T05:06:54.253Z,6.44
2023-03-17T05:08:59.254Z,6.43
2023-03-17T05:11:06.741Z,6.39
2023-03-17T05:13:11.722Z,6.39
2023-03-17T05:15:16.604Z,6.38
2023-03-17T05:17:21.568Z,6.33
2023-03-17T05:19:27.065Z,6.29
2023-03-17T05:21:32.177Z,6.28
2023-03-17T05:23:37.243Z,6.26
2023-03-17T05:25:42.719Z,6.26
2023-03-17T05:27:50.229Z,6.26
2023-03-17T05:29:56.103Z,6.23
2023-03-17T05:32:01.313Z,6.21
2023-03-17T05:34:07.297Z,6.21
2023-03-17T05:36:12.323Z,6.17
2023-03-17T05:38:18.125Z,6.15
2023-03-17T05:40:23.975Z,6.10
2023-03-17T05:42:28.865Z,6.07
2023-03-17T05:44:36.915Z,6.07
2023-03-17T05:46:42.178Z,6.06
2023-03-17T05:48:47.183Z,6.05
2023-03-17T05:50:52.212Z,6.05
2023-03-17T05:52:57.026Z,6.06
2023-03-17T05:55:03.783Z,6.07
2023-03-17T05:57:08.658Z,6.08
2023-03-17T05:59:15.239Z,6.09
2023-03-17T06:01:22.889Z,6.12
2023-03-17T06:03:27.739Z,6.19
2023-03-17T06:05:33.272Z,6.24
2023-03-17T06:07:51.693Z,6.29
2023-03-17T06:10:00.626Z,6.34
2023-03-17T06:12:06.861Z,6.39
2023-03-17T06:14:11.599Z,6.44
2023-03-17T06:16:16.711Z,6.47
2023-03-17T06:18:24.178Z,6.49
2023-03-17T06:20:28.909Z,6.54
2023-03-17T06:22:33.688Z,6.59
2023-03-17T06:24:38.711Z,6.67
2023-03-17T06:26:43.955Z,6.72
2023-03-17T06:28:48.632Z,6.78
2023-03-17T06:30:53.436Z,6.84
2023-03-17T06:32:58.325Z,6.90
2023-03-17T06:35:07.432Z,6.93
2023-03-17T06:37:12.396Z,6.98
2023-03-17T06:39:18.505Z,7.03
2023-03-17T06:41:23.620Z,7.06
2023-03-17T06:43:28.616Z,7.09
2023-03-17T06:45:34.692Z,7.14
2023-03-17T06:47:40.051Z,7.16
2023-03-17T06:49:44.783Z,7.21
2023-03-17T06:51:52.362Z,7.26
2023-03-17T06:53:57.121Z,7.30
2023-03-17T06:56:02.287Z,7.36
2023-03-17T06:58:07.138Z,7.41
2023-03-17T07:00:15.985Z,7.46
2023-03-17T07:02:20.697Z,7.51
2023-03-17T07:04:25.498Z,7.60
2023-03-17T07:06:31.124Z,7.69
2023-03-17T07:08:39.164Z,7.80
2023-03-17T07:10:45.961Z,7.93
2023-03-17T07:12:51.146Z,8.06
2023-03-17T07:14:56.256Z,8.17
2023-03-17T07:17:01.268Z,8.29
2023-03-17T07:19:07.420Z,8.40
2023-03-17T07:21:12.262Z,8.52
2023-03-17T07:23:18.432Z,8.62
2023-03-17T07:25:26.011Z,8.73
2023-03-17T07:27:31.442Z,8.85
2023-03-17T07:29:37.092Z,8.97
2023-03-17T07:31:44.981Z,9.08
2023-03-17T07:33:50.778Z,9.19
2023-03-17T07:35:55.886Z,9.31
2023-03-17T07:38:00.689Z,9.42
2023-03-17T07:40:06.410Z,9.56
2023-03-17T07:42:17.537Z,9.67
2023-03-17T07:44:22.777Z,9.83
2023-03-17T07:46:28.005Z,9.96
2023-03-17T07:48:33.517Z,10.07
2023-03-17T07:50:42.886Z,10.21
2023-03-17T07:52:47.724Z,10.33
2023-03-17T07:54:53.345Z,10.46
2023-03-17T07:56:58.630Z,10.63
2023-03-17T07:59:08.027Z,10.76
2023-03-17T08:01:13.238Z,10.90
2023-03-17T08:03:19.412Z,11.06
2023-03-17T08:05:24.374Z,11.25
2023-03-17T08:07:29.311Z,11.43
2023-03-17T08:09:34.065Z,11.63
2023-03-17T08:11:39.711Z,11.81
2023-03-17T08:13:44.551Z,12.00
2023-03-17T08:15:52.256Z,12.18
2023-03-17T08:17:57.359Z,12.38
2023-03-17T08:20:02.542Z,12.60
2023-03-17T08:22:07.938Z,12.85
2023-03-17T08:24:13.095Z,13.05
2023-03-17T08:26:18.791Z,13.25
2023-03-17T08:28:24.044Z,13.45
2023-03-17T08:30:31.545Z,13.65
2023-03-17T08:32:41.309Z,13.84
2023-03-17T08:34:48.197Z,14.03
2023-03-17T08:36:53.522Z,14.20
2023-03-17T08:38:58.424Z,14.34
2023-03-17T08:41:04.695Z,14.54
2023-03-17T08:43:10.881Z,14.73
2023-03-17T08:45:16.753Z,14.88
2023-03-17T08:47:21.871Z,15.05
2023-03-17T08:49:29.618Z,15.23
2023-03-17T08:51:37.216Z,15.38
2023-03-17T08:53:43.027Z,15.54
2023-03-17T08:55:47.970Z,15.75
2023-03-17T08:57:53.058Z,15.98
2023-03-17T08:59:57.981Z,16.17
2023-03-17T09:02:03.161Z,16.33
2023-03-17T09:04:08.992Z,16.48
2023-03-17T09:06:16.896Z,16.64
2023-03-17T09:08:21.948Z,16.82
2023-03-17T09:10:27.467Z,16.98
2023-03-17T09:12:34.227Z,17.16
2023-03-17T09:14:43.878Z,17.34
2023-03-17T09:16:50.369Z,17.54
2023-03-17T09:18:55.291Z,17.73
2023-03-17T09:21:02.470Z,17.97
2023-03-17T09:23:12.867Z,18.20
2023-03-17T09:25:18.061Z,18.41
2023-03-17T09:27:23.583Z,18.59
2023-03-17T09:29:29.185Z,18.75
2023-03-17T09:31:34.067Z,18.95
2023-03-17T09:33:38.738Z,19.17
2023-03-17T09:35:44.047Z,19.39
2023-03-17T09:37:50.014Z,19.61
2023-03-17T09:39:58.002Z,19.85
2023-03-17T09:42:22.945Z,20.11
2023-03-17T09:44:40.153Z,20.33
2023-03-17T09:46:55.310Z,20.41
2023-03-17T09:49:04.499Z,20.42
2023-03-17T09:51:12.551Z,20.34
2023-03-17T09:53:21.992Z,20.18
2023-03-17T09:55:33.814Z,20.03
2023-03-17T09:57:40.852Z,19.87
2023-03-17T09:59:48.095Z,19.69
2023-03-17T10:01:55.240Z,19.48
2023-03-17T10:04:00.009Z,19.30
2023-03-17T10:06:19.059Z,19.00
2023-03-17T10:08:31.626Z,18.86
2023-03-17T10:10:48.550Z,18.62
2023-03-17T10:13:05.549Z,18.44
2023-03-17T10:15:21.105Z,18.27
2023-03-17T10:17:29.047Z,18.12
2023-03-17T10:19:38.129Z,17.99
2023-03-17T10:21:52.588Z,17.86
2023-03-17T10:23:58.444Z,17.77
2023-03-17T10:26:10.645Z,17.67
2023-03-17T10:28:27.814Z,17.57
2023-03-17T10:30:35.792Z,17.52
2023-03-17T10:32:42.501Z,17.44
2023-03-17T10:34:48.735Z,17.36
2023-03-17T10:36:57.752Z,17.33
2023-03-17T10:39:03.259Z,17.31
2023-03-17T10:41:16.997Z,17.28
2023-03-17T10:43:23.542Z,17.28
2023-03-17T10:45:32.550Z,17.25
2023-03-17T10:47:40.055Z,17.25
2023-03-17T10:49:47.301Z,17.19
2023-03-17T10:51:55.322Z,17.16
2023-03-17T10:54:04.020Z,17.13
2023-03-17T10:56:21.155Z,17.15
2023-03-17T10:58:41.820Z,17.14
2023-03-17T11:01:00.417Z,17.16
2023-03-17T11:03:13.917Z,17.20
2023-03-17T11:05:24.674Z,17.22
2023-03-17T11:07:32.484Z,17.25
2023-03-17T11:09:39.416Z,17.28
2023-03-17T11:11:51.584Z,17.26
2023-03-17T11:14:05.152Z,17.20
2023-03-17T11:16:13.539Z,17.22
2023-03-17T11:18:23.945Z,17.24
2023-03-17T11:20:54.041Z,17.26
2023-03-17T11:23:05.502Z,17.26
2023-03-17T11:25:16.253Z,17.31
2023-03-17T11:27:32.544Z,17.36
2023-03-17T11:29:51.964Z,17.38
2023-03-17T11:32:02.773Z,17.45
2023-03-17T11:34:14.229Z,17.54
2023-03-17T11:36:36.355Z,17.60
2023-03-17T11:38:47.147Z,17.70
2023-03-17T11:41:30.453Z,17.75
2023-03-17T11:43:44.028Z,17.78
2023-03-17T11:45:55.423Z,17.83
2023-03-17T11:48:16.137Z,17.87
2023-03-17T11:50:31.176Z,17.90
2023-03-17T11:52:55.414Z,17.93
2023-03-17T11:55:10.231Z,17.94
2023-03-17T11:57:20.524Z,17.95
2023-03-17T11:59:37.479Z,17.95
2023-03-17T12:01:54.967Z,17.96
2023-03-17T12:04:12.373Z,17.99
2023-03-17T12:06:21.037Z,18.04
2023-03-17T12:08:33.144Z,18.04
2023-03-17T12:10:43.955Z,18.07
2023-03-17T12:12:53.817Z,18.10
2023-03-17T12:15:05.408Z,18.12
2023-03-17T12:17:18.622Z,18.14
2023-03-17T12:19:29.009Z,18.16
2023-03-17T12:21:38.747Z,18.16
2023-03-17T12:23:50.531Z,18.12
2023-03-17T12:26:02.562Z,18.13
2023-03-17T12:28:16.670Z,18.15
2023-03-17T12:30:33.226Z,18.19
2023-03-17T12:32:43.092Z,18.22
2023-03-17T12:34:55.431Z,18.24
2023-03-17T12:37:02.182Z,18.29
2023-03-17T12:39:13.369Z,18.30
2023-03-17T12:41:34.459Z,18.35
2023-03-17T12:43:47.757Z,18.37
2023-03-17T12:46:09.779Z,18.36
2023-03-17T12:48:47.311Z,18.34
2023-03-17T12:51:11.593Z,18.31
2023-03-17T12:53:32.658Z,18.26
2023-03-17T12:55:38.398Z,18.26
2023-03-17T12:57:45.111Z,18.24
2023-03-17T12:59:52.344Z,18.23
2023-03-17T13:02:08.946Z,18.18
2023-03-17T13:04:27.073Z,18.17
2023-03-17T13:06:34.869Z,18.18
2023-03-17T13:08:43.792Z,18.16
2023-03-17T13:10:49.247Z,18.16
2023-03-17T13:13:13.834Z,18.12
2023-03-17T13:15:47.192Z,18.10
2023-03-17T13:18:12.771Z,18.06
2023-03-17T13:20:21.792Z,18.04
2023-03-17T13:22:36.701Z,18.04
2023-03-17T13:24:51.098Z,18.01
2023-03-17T13:27:02.043Z,18.00
2023-03-17T13:29:26.851Z,17.99
2023-03-17T13:31:36.985Z,17.99
2023-03-17T13:33:52.209Z,17.98
2023-03-17T13:36:19.211Z,17.98
2023-03-17T13:38:52.518Z,17.99
2023-03-17T13:41:46.482Z,18.00
2023-03-17T13:44:05.886Z,18.00
2023-03-17T13:46:30.492Z,18.01
2023-03-17T13:48:38.736Z,18.04
2023-03-17T13:50:46.841Z,18.04
2023-03-17T13:52:56.884Z,18.05
2023-03-17T13:55:06.073Z,18.04
2023-03-17T13:57:29.654Z,18.01
2023-03-17T13:59:38.274Z,17.91
2023-03-17T14:01:49.716Z,17.93
2023-03-17T14:03:55.702Z,17.95
2023-03-17T14:06:06.609Z,17.95
2023-03-17T14:08:20.282Z,17.94
2023-03-17T14:10:28.241Z,17.94
2023-03-17T14:12:41.228Z,17.91
2023-03-17T14:14:52.316Z,17.90
2023-03-17T14:17:03.867Z,17.90
2023-03-17T14:19:20.590Z,17.88
2023-03-17T14:21:33.110Z,17.88
2023-03-17T14:23:37.986Z,17.87
2023-03-17T14:25:43.578Z,17.86
2023-03-17T14:27:51.033Z,17.84
2023-03-17T14:29:56.206Z,17.86
2023-03-17T14:32:06.657Z,17.83
2023-03-17T14:34:16.703Z,17.81
2023-03-17T14:36:22.430Z,17.80
2023-03-17T14:38:32.413Z,17.79
2023-03-17T14:40:37.153Z,17.80
2023-03-17T14:42:41.849Z,17.78
2023-03-17T14:44:47.080Z,17.79
2023-03-17T14:46:51.837Z,17.80
2023-03-17T14:49:02.604Z,17.78
2023-03-17T14:51:11.930Z,17.78
2023-03-17T14:53:18.493Z,17.78
2023-03-17T14:55:34.477Z,17.77
2023-03-17T14:57:40.752Z,17.79
2023-03-17T14:59:47.186Z,17.80
2023-03-17T15:01:58.060Z,17.78
2023-03-17T15:04:10.693Z,17.78
2023-03-17T15:06:26.589Z,17.77
2023-03-17T15:08:59.557Z,17.75
2023-03-17T15:11:08.480Z,17.73
2023-03-17T15:13:15.531Z,17.73
2023-03-17T15:15:28.081Z,17.73
2023-03-17T15:17:36.487Z,17.71
2023-03-17T15:19:43.916Z,17.70
2023-03-17T15:21:48.863Z,17.70
2023-03-17T15:23:53.782Z,17.70
2023-03-17T15:25:59.887Z,17.69
2023-03-17T15:28:13.832Z,17.67
2023-03-17T15:30:20.136Z,17.66
2023-03-17T15:32:27.349Z,17.63
2023-03-17T15:34:32.090Z,17.60
2023-03-17T15:36:37.018Z,17.59
2023-03-17T15:38:42.133Z,17.58
2023-03-17T15:40:46.810Z,17.56
2023-03-17T15:42:51.910Z,17.54
2023-03-17T15:45:00.359Z,17.52
2023-03-17T15:47:06.106Z,17.50
2023-03-17T15:49:13.663Z,17.49
2023-03-17T15:51:20.933Z,17.50
2023-03-17T15:53:26.216Z,17.50
2023-03-17T15:55:33.051Z,17.50
2023-03-17T15:57:37.737Z,17.48
2023-03-17T15:59:42.877Z,17.47
2023-03-17T16:01:50.757Z,17.44
2023-03-17T16:03:56.174Z,17.44
2023-03-17T16:06:01.896Z,17.42
2023-03-17T16:08:07.029Z,17.40
2023-03-17T16:10:19.383Z,17.39
2023-03-17T16:12:24.248Z,17.39
2023-03-17T16:14:29.454Z,17.38
2023-03-17T16:16:39.346Z,17.35
2023-03-17T16:18:47.164Z,17.35
2023-03-17T16:20:53.436Z,17.34
2023-03-17T16:23:02.079Z,17.33
2023-03-17T16:25:09.501Z,17.31
2023-03-17T16:27:17.736Z,17.30
2023-03-17T16:29:23.731Z,17.30
2023-03-17T16:31:31.169Z,17.28
2023-03-17T16:33:42.261Z,17.27
2023-03-17T16:35:52.524Z,17.25
2023-03-17T16:37:58.136Z,17.23
2023-03-17T16:40:03.437Z,17.20
2023-03-17T16:42:25.214Z,17.17
2023-03-17T16:44:30.137Z,17.15
2023-03-17T16:46:37.166Z,17.13
2023-03-17T16:48:42.187Z,17.13
2023-03-17T16:50:50.140Z,17.08
2023-03-17T16:52:55.321Z,17.04
2023-03-17T16:55:00.186Z,17.02
2023-03-17T16:57:07.724Z,16.99
2023-03-17T16:59:18.012Z,16.97
2023-03-17T17:01:25.575Z,16.94
2023-03-17T17:03:31.230Z,16.91
2023-03-17T17:05:36.359Z,16.87
2023-03-17T17:07:43.759Z,16.83
2023-03-17T17:09:48.692Z,16.82
2023-03-17T17:11:53.774Z,16.79
2023-03-17T17:14:00.052Z,16.75
2023-03-17T17:16:05.248Z,16.72
2023-03-17T17:18:14.730Z,16.69
2023-03-17T17:20:22.900Z,16.65
2023-03-17T17:22:28.024Z,16.62
2023-03-17T17:24:38.108Z,16.56
2023-03-17T17:26:43.119Z,16.51
2023-03-17T17:28:47.800Z,16.48
2023-03-17T17:30:53.537Z,16.43
2023-03-17T17:32:59.909Z,16.37
2023-03-17T17:35:05.090Z,16.32
2023-03-17T17:37:12.592Z,16.26
2023-03-17T17:39:17.682Z,16.22
2023-03-17T17:41:25.259Z,16.16
2023-03-17T17:43:30.213Z,16.11
2023-03-17T17:45:34.923Z,16.07
2023-03-17T17:47:39.706Z,16.01
2023-03-17T17:49:44.593Z,15.96
2023-03-17T17:51:49.887Z,15.92
2023-03-17T17:53:54.579Z,15.86
2023-03-17T17:55:59.579Z,15.81
2023-03-17T17:58:07.034Z,15.74
2023-03-17T18:00:16.578Z,15.70
2023-03-17T18:02:21.513Z,15.64
2023-03-17T18:04:26.537Z,15.59
2023-03-17T18:06:31.506Z,15.52
2023-03-17T18:08:37.029Z,15.47
2023-03-17T18:10:41.643Z,15.41
2023-03-17T18:12:46.706Z,15.36
2023-03-17T18:14:54.046Z,15.29
2023-03-17T18:16:59.029Z,15.24
2023-03-17T18:19:03.962Z,15.17
2023-03-17T18:21:09.043Z,15.14
2023-03-17T18:23:13.760Z,15.10
2023-03-17T18:25:19.636Z,15.05
2023-03-17T18:27:24.446Z,14.99
2023-03-17T18:29:29.160Z,14.93
2023-03-17T18:31:41.783Z,14.85
2023-03-17T18:33:49.325Z,14.78
2023-03-17T18:35:55.885Z,14.74
2023-03-17T18:38:01.580Z,14.71
2023-03-17T18:40:18.600Z,14.66
2023-03-17T18:42:24.104Z,14.62
2023-03-17T18:44:29.226Z,14.58
2023-03-17T18:46:37.027Z,14.55
2023-03-17T18:48:42.393Z,14.53
2023-03-17T18:50:47.454Z,14.48
2023-03-17T18:52:53.142Z,14.47
2023-03-17T18:54:57.880Z,14.43
2023-03-17T18:57:02.964Z,14.42
2023-03-17T18:59:07.753Z,14.38
2023-03-17T19:01:12.756Z,14.33
2023-03-17T19:03:20.950Z,14.27
2023-03-17T19:05:26.059Z,14.23
2023-03-17T19:07:30.868Z,14.17
2023-03-17T19:09:35.556Z,14.12
2023-03-17T19:11:41.457Z,14.07
2023-03-17T19:13:46.614Z,14.03
2023-03-17T19:15:52.259Z,13.98
2023-03-17T19:17:57.343Z,13.94
2023-03-17T19:20:05.092Z,13.92
2023-03-17T19:22:11.190Z,13.91
2023-03-17T19:24:16.347Z,13.87
2023-03-17T19:26:21.251Z,13.83
2023-03-17T19:28:26.542Z,13.79
2023-03-17T19:30:31.735Z,13.77
2023-03-17T19:32:36.913Z,13.73
2023-03-17T19:34:41.730Z,13.70
2023-03-17T19:36:49.488Z,13.67
2023-03-17T19:38:54.166Z,13.63
2023-03-17T19:40:59.223Z,13.59
2023-03-17T19:43:04.638Z,13.56
2023-03-17T19:45:10.857Z,13.54
2023-03-17T19:47:15.595Z,13.51
2023-03-17T19:49:21.189Z,13.46
2023-03-17T19:51:27.252Z,13.41
2023-03-17T19:53:34.827Z,13.37
2023-03-17T19:55:39.896Z,13.35
2023-03-17T19:57:44.787Z,13.31
2023-03-17T19:59:49.569Z,13.29
2023-03-17T20:01:54.375Z,13.26
2023-03-17T20:03:59.267Z,13.21
2023-03-17T20:06:06.492Z,13.16
2023-03-17T20:08:11.813Z,13.11
2023-03-17T20:10:19.521Z,13.07
2023-03-17T20:12:25.300Z,13.06
2023-03-17T20:14:30.570Z,13.02
2023-03-17T20:16:37.032Z,13.00
2023-03-17T20:18:41.998Z,12.99
2023-03-17T20:20:49.520Z,12.97
2023-03-17T20:22:54.616Z,12.96
2023-03-17T20:24:59.420Z,12.93
2023-03-17T20:27:08.074Z,12.89
2023-03-17T20:29:14.520Z,12.85
2023-03-17T20:31:20.011Z,12.80
2023-03-17T20:33:25.069Z,12.74
2023-03-17T20:35:30.844Z,12.69
2023-03-17T20:37:35.685Z,12.65
2023-03-17T20:39:40.878Z,12.60
2023-03-17T20:41:45.579Z,12.54
2023-03-17T20:43:53.966Z,12.49
2023-03-17T20:45:58.961Z,12.45
2023-03-17T20:48:05.054Z,12.43
2023-03-17T20:50:10.892Z,12.41
2023-03-17T20:52:17.562Z,12.38
2023-03-17T20:54:23.370Z,12.38
2023-03-17T20:56:29.989Z,12.35
2023-03-17T20:58:34.817Z,12.31
2023-03-17T21:00:42.387Z,12.27
2023-03-17T21:02:50.409Z,12.24
2023-03-17T21:04:55.370Z,12.20
2023-03-17T21:07:00.163Z,12.17
2023-03-17T21:09:05.274Z,12.14
2023-03-17T21:11:16.125Z,12.09
2023-03-17T21:13:20.958Z,12.04
2023-03-17T21:15:25.711Z,12.01
2023-03-17T21:17:33.574Z,11.95
2023-03-17T21:19:38.849Z,11.90
2023-03-17T21:21:43.676Z,11.86
2023-03-17T21:23:49.083Z,11.83
2023-03-17T21:25:58.282Z,11.78
2023-03-17T21:28:04.084Z,11.75
2023-03-17T21:30:12.108Z,11.73
2023-03-17T21:32:16.902Z,11.72
2023-03-17T21:34:24.725Z,11.72
2023-03-17T21:36:29.664Z,11.72
2023-03-17T21:38:34.815Z,11.70
2023-03-17T21:40:39.873Z,11.69
2023-03-17T21:42:45.901Z,11.68
2023-03-17T21:44:52.168Z,11.67
2023-03-17T21:46:57.706Z,11.60
2023-03-17T21:49:03.588Z,11.56
2023-03-17T21:51:11.718Z,11.51
2023-03-17T21:53:17.337Z,11.49
2023-03-17T21:55:22.243Z,11.43
2023-03-17T21:57:27.892Z,11.38
2023-03-17T21:59:35.800Z,11.30
2023-03-17T22:01:41.092Z,11.26
2023-03-17T22:03:46.232Z,11.23
2023-03-17T22:05:51.367Z,11.21
2023-03-17T22:07:58.738Z,11.15
2023-03-17T22:10:07.071Z,11.10
2023-03-17T22:12:12.694Z,11.07
2023-03-17T22:14:20.107Z,11.04
2023-03-17T22:16:25.178Z,10.99
2023-03-17T22:18:30.124Z,10.92
2023-03-17T22:20:35.143Z,10.83
2023-03-17T22:22:39.889Z,10.79
2023-03-17T22:24:47.509Z,10.77
2023-03-17T22:26:52.507Z,10.78
2023-03-17T22:28:58.494Z,10.79
2023-03-17T22:31:05.186Z,10.81
2023-03-17T22:33:10.040Z,10.82
2023-03-17T22:35:14.775Z,10.83
2023-03-17T22:37:19.513Z,10.82
2023-03-17T22:39:24.253Z,10.82
2023-03-17T22:41:33.908Z,10.80
2023-03-17T22:43:40.233Z,10.79
2023-03-17T22:45:44.997Z,10.76
2023-03-17T22:47:49.704Z,10.74
2023-03-17T22:49:54.439Z,10.73
2023-03-17T22:51:59.392Z,10.72
2023-03-17T22:54:04.321Z,10.70
2023-03-17T22:56:11.058Z,10.65
2023-03-17T22:58:19.474Z,10.64
2023-03-17T23:00:25.780Z,10.61
2023-03-17T23:02:30.845Z,10.58
2023-03-17T23:04:36.114Z,10.56
2023-03-17T23:06:41.662Z,10.54
2023-03-17T23:08:47.585Z,10.52
2023-03-17T23:10:54.119Z,10.49
2023-03-17T23:12:58.981Z,10.46
2023-03-17T23:15:08.025Z,10.44
2023-03-17T23:17:13.262Z,10.41
2023-03-17T23:19:18.289Z,10.38
2023-03-17T23:21:26.609Z,10.35
2023-03-17T23:23:31.737Z,10.31
2023-03-17T23:25:36.794Z,10.29
2023-03-17T23:27:41.633Z,10.26
2023-03-17T23:29:46.620Z,10.24
2023-03-17T23:31:54.743Z,10.22
2023-03-17T23:33:59.714Z,10.16
2023-03-17T23:36:04.487Z,10.10
2023-03-17T23:38:09.925Z,10.07
2023-03-17T23:40:17.404Z,10.02
2023-03-17T23:42:22.445Z,9.97
2023-03-17T23:44:27.312Z,9.87
2023-03-17T23:46:32.116Z,9.79
2023-03-17T23:48:42.508Z,9.73
2023-03-17T23:50:47.499Z,9.68
2023-03-17T23:52:54.201Z,9.65
2023-03-17T23:54:59.463Z,9.59
2023-03-17T23:57:04.225Z,9.56
2023-03-17T23:59:09.842Z,9.52
